Time;durP1;ratioP1;P1;durP2;ratioP2;P2;SDS_P1;SDS_P2;PMS_P1;PMS_P2;Temp;Humidity;BMP_temperature;BMP_pressure;BME280_temperature;BME280_humidity;BME280_pressure;Samples;Min_cycle;Max_cycle;Signal;HPM_P1;HPM_P2
2023/08/08 00:00:28;;;;;;;3.20;1.00;;;;;;;15.42;69.48;98867.94;4907539;29;20214;-52
2023/08/08 00:02:56;;;;;;;2.23;1.10;;;;;;;15.34;70.39;98866.22;4909822;29;20252;-53
2023/08/08 00:05:23;;;;;;;1.33;1.10;;;;;;;15.36;70.60;98866.84;4908307;29;20230;-51
2023/08/08 00:07:49;;;;;;;2.70;1.33;;;;;;;15.36;70.17;98872.09;4908658;29;20249;-51
2023/08/08 00:10:16;;;;;;;1.83;1.23;;;;;;;15.22;70.87;98875.50;4910677;29;20602;-52
2023/08/08 00:12:43;;;;;;;3.60;1.30;;;;;;;15.16;70.44;98869.13;4906500;29;20234;-53
2023/08/08 00:15:09;;;;;;;3.40;1.07;;;;;;;15.11;70.95;98872.28;4909683;29;20225;-51
2023/08/08 00:17:36;;;;;;;2.47;1.17;;;;;;;15.03;72.60;98867.91;4908219;29;20250;-51
2023/08/08 00:20:07;;;;;;;3.80;1.27;;;;;;;15.09;72.18;98863.75;4910819;29;20378;-53
2023/08/08 00:22:33;;;;;;;4.73;1.70;;;;;;;15.18;70.68;98865.31;4905927;29;20718;-51
2023/08/08 00:25:00;;;;;;;3.20;1.37;;;;;;;15.32;69.65;98871.66;4910658;29;20240;-51
2023/08/08 00:27:26;;;;;;;2.87;1.20;;;;;;;15.36;70.23;98869.47;4907751;29;20234;-52
2023/08/08 00:29:54;;;;;;;2.23;1.10;;;;;;;15.42;70.18;98871.41;4909399;29;20253;-53
2023/08/08 00:32:21;;;;;;;1.97;1.40;;;;;;;15.42;69.40;98860.06;4909745;29;20713;-53
2023/08/08 00:34:48;;;;;;;1.47;1.00;;;;;;;15.47;69.29;98848.03;4908957;29;20240;-51
2023/08/08 00:37:16;;;;;;;2.67;1.10;;;;;;;15.53;68.68;98850.94;4909266;29;20223;-54
2023/08/08 00:39:45;;;;;;;3.00;1.20;;;;;;;15.42;69.49;98850.38;4907475;29;20262;-53
2023/08/08 00:42:12;;;;;;;2.50;1.07;;;;;;;15.35;70.06;98836.28;4909322;29;20239;-51
2023/08/08 00:44:40;;;;;;;3.97;1.20;;;;;;;15.31;69.59;98838.47;4908273;29;20246;-53
2023/08/08 00:47:07;;;;;;;2.03;1.37;;;;;;;15.27;69.76;98831.09;4909788;29;20933;-53
2023/08/08 00:49:35;;;;;;;3.43;1.23;;;;;;;15.18;70.37;98833.78;4906799;29;20716;-53
2023/08/08 00:52:02;;;;;;;3.27;1.40;;;;;;;15.29;70.83;98831.72;4910297;29;20729;-52
2023/08/08 00:54:31;;;;;;;3.30;1.30;;;;;;;15.17;71.08;98842.66;4905268;29;20225;-51
2023/08/08 00:56:57;;;;;;;3.03;1.10;;;;;;;14.94;73.06;98834.75;4909017;29;20234;-53
2023/08/08 00:59:24;;;;;;;1.97;1.20;;;;;;;14.85;72.71;98830.56;4905947;29;20226;-51
2023/08/08 01:01:51;;;;;;;2.33;1.27;;;;;;;14.94;72.56;98836.56;4910581;29;20238;-52
2023/08/08 01:04:18;;;;;;;6.13;1.20;;;;;;;14.76;72.77;98837.66;4905534;29;20624;-51
2023/08/08 01:06:55;;;;;;;2.93;1.20;;;;;;;14.90;72.44;98836.09;4905195;29;20230;-51
2023/08/08 01:09:29;;;;;;;2.13;1.50;;;;;;;15.08;71.60;98835.00;4925813;29;20240;-51
2023/08/08 01:11:57;;;;;;;2.73;1.50;;;;;;;14.91;72.50;98835.91;4906972;29;20250;-51
2023/08/08 01:14:28;;;;;;;3.63;1.27;;;;;;;14.90;72.82;98830.84;4904929;29;20244;-52
2023/08/08 01:16:57;;;;;;;4.47;1.20;;;;;;;15.09;71.63;98839.28;4907832;29;20586;-51
2023/08/08 01:19:28;;;;;;;3.80;1.30;;;;;;;15.22;71.28;98830.78;4905039;29;20260;-51
2023/08/08 01:21:59;;;;;;;4.30;1.17;;;;;;;15.39;69.92;98832.31;4909323;29;20268;-51
2023/08/08 01:24:29;;;;;;;2.57;1.20;;;;;;;15.27;72.16;98831.09;4902471;29;20233;-51
2023/08/08 01:26:56;;;;;;;5.27;1.30;;;;;;;15.20;71.08;98823.91;4910261;29;20564;-51
2023/08/08 01:29:23;;;;;;;2.20;1.13;;;;;;;15.25;70.63;98820.75;4902789;29;20487;-54
2023/08/08 01:31:51;;;;;;;3.57;1.20;;;;;;;15.15;71.02;98813.09;4907089;29;20249;-52
2023/08/08 01:34:17;;;;;;;2.83;1.00;;;;;;;15.10;71.01;98828.56;4909415;29;20258;-53
2023/08/08 01:36:50;;;;;;;3.60;1.00;;;;;;;15.22;70.94;98823.72;4906662;29;20239;-54
2023/08/08 01:39:21;;;;;;;3.37;1.10;;;;;;;15.24;71.24;98819.13;4909300;29;20378;-53
2023/08/08 01:41:51;;;;;;;1.53;1.10;;;;;;;15.27;71.40;98817.94;4920650;29;20218;-54
2023/08/08 01:44:18;;;;;;;4.67;1.07;;;;;;;15.25;70.59;98822.56;4910630;29;20227;-52
2023/08/08 01:46:46;;;;;;;2.07;1.10;;;;;;;15.42;69.64;98816.16;4904285;29;20781;-53
2023/08/08 01:49:14;;;;;;;3.23;1.30;;;;;;;15.33;72.38;98820.69;4909528;29;20571;-52
2023/08/08 01:51:40;;;;;;;3.20;1.17;;;;;;;15.35;72.61;98820.50;4905325;29;20228;-53
2023/08/08 01:54:08;;;;;;;2.33;1.17;;;;;;;15.33;71.78;98819.88;4909015;29;20325;-53
2023/08/08 01:56:35;;;;;;;3.47;1.23;;;;;;;15.34;73.04;98816.25;4899538;29;20231;-52
2023/08/08 01:59:03;;;;;;;1.60;1.13;;;;;;;15.26;73.22;98822.41;4908610;29;20226;-53
2023/08/08 02:01:29;;;;;;;2.93;1.27;;;;;;;15.18;74.73;98823.25;4907583;29;20587;-51
2023/08/08 02:03:57;;;;;;;1.87;1.10;;;;;;;15.19;72.84;98821.47;4907025;29;20238;-52
2023/08/08 02:06:23;;;;;;;3.50;1.20;;;;;;;15.14;74.12;98826.44;4903348;29;20237;-52
2023/08/08 02:08:50;;;;;;;6.33;1.30;;;;;;;15.25;71.33;98817.28;4906870;29;20556;-51
2023/08/08 02:11:21;;;;;;;3.37;1.37;;;;;;;15.27;70.38;98816.13;4908478;29;20607;-52
2023/08/08 02:13:49;;;;;;;2.73;1.00;;;;;;;15.26;71.62;98816.28;4904192;29;20253;-51
2023/08/08 02:16:22;;;;;;;2.40;1.03;;;;;;;15.35;70.98;98813.44;4907357;29;20337;-54
2023/08/08 02:18:48;;;;;;;3.03;1.30;;;;;;;15.37;72.00;98812.44;4919794;29;20245;-53
2023/08/08 02:21:15;;;;;;;4.10;1.10;;;;;;;15.43;70.82;98812.53;4909142;29;20221;-51
2023/08/08 02:23:42;;;;;;;5.27;1.23;;;;;;;15.62;68.44;98805.16;4920027;29;20220;-53
2023/08/08 02:26:08;;;;;;;2.20;1.10;;;;;;;15.55;68.63;98812.13;4907523;29;20234;-53
2023/08/08 02:28:35;;;;;;;3.67;1.30;;;;;;;15.63;68.58;98809.41;4905635;29;20246;-51
2023/08/08 02:31:01;;;;;;;3.83;1.20;;;;;;;15.61;69.07;98820.09;4908036;29;20234;-54
2023/08/08 02:33:29;;;;;;;3.27;1.20;;;;;;;15.59;68.80;98806.31;4906141;29;20238;-55
2023/08/08 02:35:56;;;;;;;1.40;1.00;;;;;;;15.62;68.42;98813.03;4907906;29;20610;-53
2023/08/08 02:38:23;;;;;;;1.93;1.23;;;;;;;15.60;67.56;98807.13;4911159;29;20226;-51
2023/08/08 02:40:49;;;;;;;1.23;0.83;;;;;;;15.70;68.70;98815.59;4912070;29;20230;-52
2023/08/08 02:43:17;;;;;;;2.63;1.10;;;;;;;15.80;67.37;98815.31;4910352;29;20230;-51
2023/08/08 02:45:44;;;;;;;1.50;1.17;;;;;;;15.73;67.08;98817.88;4908870;29;20299;-53
2023/08/08 02:48:10;;;;;;;2.00;1.10;;;;;;;15.64;67.45;98808.41;4911298;29;20236;-53
2023/08/08 02:50:39;;;;;;;2.80;1.40;;;;;;;15.60;67.58;98810.56;4906399;29;20325;-51
2023/08/08 02:53:06;;;;;;;5.80;1.00;;;;;;;15.66;67.47;98811.69;4910213;29;20619;-51
2023/08/08 02:55:37;;;;;;;1.37;0.97;;;;;;;15.54;68.39;98813.13;4907767;29;20239;-51
2023/08/08 02:58:05;;;;;;;2.70;1.23;;;;;;;15.47;67.29;98813.81;4910390;29;20239;-52
2023/08/08 03:00:32;;;;;;;1.97;0.90;;;;;;;15.38;67.18;98814.88;4908793;29;20236;-54
2023/08/08 03:03:00;;;;;;;1.87;1.00;;;;;;;15.44;68.19;98818.59;4908829;29;20243;-51
2023/08/08 03:05:26;;;;;;;1.90;1.10;;;;;;;15.28;68.86;98814.31;4906470;29;20235;-52
2023/08/08 03:07:55;;;;;;;3.13;1.27;;;;;;;15.27;69.25;98820.56;4911350;29;20629;-51
2023/08/08 03:10:23;;;;;;;2.87;0.80;;;;;;;15.22;68.70;98823.72;4907311;29;20231;-52
2023/08/08 03:12:50;;;;;;;2.67;1.17;;;;;;;15.25;68.54;98817.28;4909273;29;20277;-53
2023/08/08 03:15:19;;;;;;;1.23;0.90;;;;;;;15.22;69.67;98818.47;4909826;29;20643;-53
2023/08/08 03:17:46;;;;;;;1.70;1.00;;;;;;;15.16;69.54;98817.34;4904547;29;20318;-53
2023/08/08 03:20:13;;;;;;;3.00;1.10;;;;;;;15.22;69.27;98818.47;4925527;29;20232;-51
2023/08/08 03:22:39;;;;;;;2.23;1.00;;;;;;;15.31;68.68;98814.78;4906810;29;20311;-51
2023/08/08 03:25:09;;;;;;;1.33;0.90;;;;;;;15.26;69.33;98813.66;4911310;29;20241;-51
2023/08/08 03:27:36;;;;;;;3.77;1.03;;;;;;;15.28;70.16;98811.69;4908079;29;20236;-53
2023/08/08 03:32:52;;;;;;;3.10;1.27;;;;;;;15.55;69.14;98823.44;5020831;23;20296;-57
2023/08/08 03:35:19;;;;;;;3.13;1.30;;;;;;;15.47;68.60;98820.88;4936218;28;20234;-57
2023/08/08 03:37:47;;;;;;;2.27;1.20;;;;;;;15.46;67.95;98824.50;4949062;28;20238;-60
2023/08/08 03:40:15;;;;;;;2.00;1.13;;;;;;;15.56;67.80;98834.81;4938517;28;20237;-57
2023/08/08 03:42:42;;;;;;;3.93;1.23;;;;;;;15.52;67.70;98825.63;4938280;28;20231;-59
2023/08/08 03:45:09;;;;;;;2.77;1.10;;;;;;;15.49;67.92;98826.78;4937606;28;20225;-58
2023/08/08 03:47:36;;;;;;;3.80;1.10;;;;;;;15.56;67.98;98824.28;4936227;28;20645;-59
2023/08/08 03:50:04;;;;;;;1.47;1.13;;;;;;;15.56;68.03;98826.91;4942243;28;20221;-59
2023/08/08 03:52:34;;;;;;;4.17;1.13;;;;;;;15.53;68.02;98829.91;4952442;28;20663;-59
2023/08/08 03:55:00;;;;;;;1.90;1.00;;;;;;;15.44;68.55;98822.06;4951331;28;20226;-56
2023/08/08 03:57:28;;;;;;;2.27;0.90;;;;;;;15.39;68.79;98824.41;4929395;29;20390;-55
2023/08/08 03:59:55;;;;;;;3.30;1.00;;;;;;;15.39;68.69;98829.69;4936433;29;20322;-56
2023/08/08 04:02:22;;;;;;;3.10;1.20;;;;;;;15.34;69.13;98829.38;4952491;28;20311;-54
2023/08/08 04:04:48;;;;;;;3.43;1.20;;;;;;;15.27;69.37;98820.56;4947100;28;20234;-59
2023/08/08 04:07:15;;;;;;;1.50;0.80;;;;;;;15.24;70.03;98827.00;4936403;28;20236;-59
2023/08/08 04:09:42;;;;;;;4.03;1.07;;;;;;;15.23;70.57;98825.38;4936173;28;20834;-59
2023/08/08 04:12:09;;;;;;;2.87;0.93;;;;;;;15.18;70.33;98832.97;4952871;28;20234;-59
2023/08/08 04:14:37;;;;;;;1.63;1.00;;;;;;;15.04;71.89;98843.25;4945966;28;20233;-57
2023/08/08 04:17:04;;;;;;;2.27;1.20;;;;;;;14.95;72.93;98825.88;4948284;28;20234;-58
2023/08/08 04:19:31;;;;;;;4.50;1.40;;;;;;;14.99;72.68;98829.81;4935261;28;20242;-59
2023/08/08 04:21:57;;;;;;;3.33;1.30;;;;;;;14.98;71.99;98835.22;4935417;28;20245;-59
2023/08/08 04:24:24;;;;;;;3.83;1.03;;;;;;;14.99;71.82;98835.06;4932647;29;20244;-57
2023/08/08 04:26:50;;;;;;;1.83;1.30;;;;;;;15.02;72.26;98826.81;4934181;28;20233;-58
2023/08/08 04:29:17;;;;;;;1.73;1.23;;;;;;;15.15;70.59;98839.38;4937511;29;20244;-59
2023/08/08 04:31:45;;;;;;;2.00;1.10;;;;;;;15.24;70.55;98844.59;4932216;28;20249;-58
2023/08/08 04:34:11;;;;;;;2.00;1.30;;;;;;;15.24;72.52;98840.16;4936841;28;20229;-57
2023/08/08 04:36:38;;;;;;;2.73;1.50;;;;;;;15.02;73.78;98842.59;4933864;28;20238;-58
2023/08/08 04:39:05;;;;;;;2.27;1.30;;;;;;;14.88;76.89;98841.50;4936360;28;20879;-57
2023/08/08 04:41:31;;;;;;;1.60;1.03;;;;;;;14.75;78.16;98846.53;4943326;28;20239;-56
2023/08/08 04:43:58;;;;;;;1.83;1.00;;;;;;;14.59;79.53;98848.22;4932817;28;20233;-58
2023/08/08 04:46:24;;;;;;;3.77;1.50;;;;;;;14.53;79.44;98843.66;4933049;28;20234;-59
2023/08/08 04:48:52;;;;;;;2.67;1.47;;;;;;;14.52;80.90;98849.91;4938078;28;20253;-59
2023/08/08 04:51:22;;;;;;;1.67;1.37;;;;;;;14.49;81.75;98842.38;4933983;28;20321;-58
2023/08/08 04:53:49;;;;;;;3.57;1.60;;;;;;;14.49;83.42;98838.91;4933889;28;20264;-59
2023/08/08 04:56:15;;;;;;;3.93;1.30;;;;;;;14.56;82.67;98838.06;4937239;28;20229;-59
2023/08/08 04:58:42;;;;;;;7.27;1.67;;;;;;;14.40;83.82;98836.31;4932159;28;20217;-59
2023/08/08 05:01:14;;;;;;;1.67;1.50;;;;;;;14.29;85.31;98836.72;4937190;28;20256;-58
2023/08/08 05:03:40;;;;;;;3.13;1.63;;;;;;;14.25;83.91;98838.84;4931035;28;20661;-57
2023/08/08 05:06:08;;;;;;;3.90;1.40;;;;;;;14.22;83.63;98844.41;4937229;28;20226;-57
2023/08/08 05:08:35;;;;;;;2.60;1.40;;;;;;;14.18;83.21;98837.88;4936526;29;20245;-57
2023/08/08 05:11:01;;;;;;;3.27;1.10;;;;;;;14.46;77.78;98835.63;4937144;28;20241;-58
2023/08/08 05:13:28;;;;;;;1.43;1.20;;;;;;;14.45;78.33;98841.88;4931716;29;20254;-57
2023/08/08 05:15:54;;;;;;;4.23;1.03;;;;;;;14.47;78.31;98841.72;4932536;28;20244;-57
2023/08/08 05:18:21;;;;;;;3.20;1.20;;;;;;;14.52;77.17;98834.13;4937082;28;20229;-57
2023/08/08 05:20:47;;;;;;;3.47;1.10;;;;;;;14.53;77.53;98843.66;4929672;29;20238;-57
2023/08/08 05:23:15;;;;;;;5.67;1.20;;;;;;;14.59;77.60;98848.22;4936977;28;20238;-57
2023/08/08 05:25:42;;;;;;;3.47;1.47;;;;;;;14.59;79.09;98853.47;4934124;28;20222;-56
2023/08/08 05:28:09;;;;;;;4.80;2.03;;;;;;;14.60;80.26;98847.25;4933858;29;20257;-57
2023/08/08 05:30:36;;;;;;;3.67;1.70;;;;;;;14.72;80.34;98857.41;4933465;28;20232;-57
2023/08/08 05:33:03;;;;;;;2.50;1.20;;;;;;;14.81;82.31;98856.38;4935203;28;20232;-58
2023/08/08 05:35:29;;;;;;;2.83;1.50;;;;;;;14.86;82.38;98848.75;4932984;28;20332;-58
2023/08/08 05:37:56;;;;;;;5.20;2.17;;;;;;;15.00;82.82;98843.75;4933683;28;20654;-58
2023/08/08 05:40:24;;;;;;;4.27;1.50;;;;;;;15.12;81.17;98847.63;4930897;29;20231;-57
2023/08/08 05:42:51;;;;;;;2.77;1.30;;;;;;;15.28;80.33;98846.69;4932860;28;20306;-57
2023/08/08 05:45:18;;;;;;;2.23;1.40;;;;;;;15.25;79.86;98833.06;4939430;28;20251;-58
2023/08/08 05:47:45;;;;;;;4.93;1.53;;;;;;;15.17;80.20;98832.13;4929912;29;20234;-57
2023/08/08 05:50:11;;;;;;;3.33;1.20;;;;;;;15.12;80.75;98836.28;4932497;28;20306;-58
2023/08/08 05:52:38;;;;;;;1.87;1.30;;;;;;;15.11;76.83;98838.09;4932018;28;20241;-57
2023/08/08 05:55:05;;;;;;;3.30;1.10;;;;;;;15.20;74.28;98834.41;4935583;28;20240;-58
2023/08/08 05:57:33;;;;;;;4.23;1.13;;;;;;;15.25;74.55;98843.59;4934977;28;20230;-57
2023/08/08 06:00:00;;;;;;;2.30;1.30;;;;;;;15.32;73.16;98840.09;4936440;28;20226;-57
2023/08/08 06:02:26;;;;;;;2.83;1.47;;;;;;;15.37;74.00;98846.66;4932239;28;20698;-58
2023/08/08 06:04:53;;;;;;;5.43;1.30;;;;;;;15.43;74.23;98846.75;4950737;28;20230;-56
2023/08/08 06:07:19;;;;;;;3.00;1.50;;;;;;;15.50;72.06;98847.66;4938957;28;20235;-57
2023/08/08 06:09:46;;;;;;;1.53;1.00;;;;;;;15.61;71.02;98835.09;4933966;28;20670;-57
2023/08/08 06:12:13;;;;;;;3.13;1.13;;;;;;;15.71;71.21;98850.59;4937318;28;20245;-57
2023/08/08 06:14:41;;;;;;;1.97;1.30;;;;;;;15.79;70.32;98846.09;4933694;28;20261;-57
2023/08/08 06:17:07;;;;;;;1.60;1.13;;;;;;;15.79;68.66;98854.00;4935336;28;20717;-57
2023/08/08 06:19:34;;;;;;;2.70;1.20;;;;;;;15.86;69.21;98853.28;4931630;28;20245;-57
2023/08/08 06:22:02;;;;;;;2.70;1.30;;;;;;;15.89;68.91;98855.59;4936988;28;20226;-58
2023/08/08 06:24:29;;;;;;;3.20;1.10;;;;;;;15.86;69.64;98867.25;4933368;28;20241;-58
2023/08/08 06:26:56;;;;;;;2.53;1.50;;;;;;;15.98;69.80;98862.38;4935685;28;20230;-57
2023/08/08 06:29:22;;;;;;;3.27;1.40;;;;;;;16.00;68.87;98870.13;4933807;28;20249;-57
2023/08/08 06:31:50;;;;;;;1.93;1.10;;;;;;;16.12;70.21;98867.84;4934531;28;20758;-58
2023/08/08 06:34:17;;;;;;;1.63;1.20;;;;;;;16.16;68.73;98869.13;4932598;28;20243;-57
2023/08/08 06:36:43;;;;;;;1.40;1.20;;;;;;;16.30;70.33;98863.03;4931351;28;20252;-57
2023/08/08 06:39:11;;;;;;;2.30;1.40;;;;;;;16.38;70.78;98870.84;4933341;28;20242;-58
2023/08/08 06:41:38;;;;;;;3.13;1.17;;;;;;;16.47;70.97;98868.91;4936101;28;20367;-58
2023/08/08 06:44:09;;;;;;;2.23;1.10;;;;;;;16.64;69.14;98869.56;4933113;28;20228;-58
2023/08/08 06:46:35;;;;;;;3.57;1.40;;;;;;;16.87;68.50;98873.88;4930598;28;20224;-57
2023/08/08 06:49:04;;;;;;;1.83;1.20;;;;;;;17.14;67.59;98868.09;4937123;28;20258;-57
2023/08/08 06:51:31;;;;;;;1.80;1.13;;;;;;;17.46;66.81;98866.78;4933834;28;20243;-57
2023/08/08 06:53:57;;;;;;;2.37;1.27;;;;;;;17.23;66.56;98866.97;4935293;28;20727;-56
2023/08/08 06:56:25;;;;;;;3.73;1.00;;;;;;;17.03;65.36;98861.47;4932626;29;20238;-57
2023/08/08 06:58:52;;;;;;;3.53;1.03;;;;;;;16.83;66.28;98862.06;4932858;29;20234;-55
2023/08/08 07:01:23;;;;;;;3.47;1.20;;;;;;;16.70;67.69;98864.56;4936584;28;20598;-55
2023/08/08 07:03:49;;;;;;;1.60;1.17;;;;;;;16.64;66.30;98866.91;4931997;28;20229;-58
2023/08/08 07:06:21;;;;;;;4.60;1.23;;;;;;;16.80;67.04;98862.44;4933004;29;20233;-57
2023/08/08 07:08:48;;;;;;;2.67;1.33;;;;;;;16.66;67.26;98856.19;4932445;28;20231;-58
2023/08/08 07:11:14;;;;;;;2.33;1.20;;;;;;;16.71;67.33;98858.28;4932301;28;20241;-57
2023/08/08 07:13:41;;;;;;;1.60;1.13;;;;;;;16.60;66.38;98852.47;4930764;28;20730;-58
2023/08/08 07:16:07;;;;;;;1.90;1.13;;;;;;;16.66;66.91;98854.38;4932895;28;20231;-55
2023/08/08 07:18:34;;;;;;;4.00;1.40;;;;;;;16.59;66.31;98857.91;4931193;28;20242;-57
2023/08/08 07:21:00;;;;;;;3.50;1.30;;;;;;;16.76;65.78;98861.97;4934046;28;20722;-57
2023/08/08 07:23:28;;;;;;;2.33;1.10;;;;;;;16.74;65.56;98848.16;4933521;28;20229;-56
2023/08/08 07:25:55;;;;;;;2.00;1.20;;;;;;;16.88;66.39;98858.88;4938705;28;20223;-58
2023/08/08 07:28:22;;;;;;;3.43;1.30;;;;;;;16.99;65.98;98847.03;4939381;28;20236;-57
2023/08/08 07:30:48;;;;;;;3.03;1.27;;;;;;;17.03;65.70;98850.94;4936002;28;20247;-55
2023/08/08 07:33:15;;;;;;;4.23;1.10;;;;;;;16.96;66.06;98838.50;4941197;28;20215;-58
2023/08/08 07:35:42;;;;;;;2.80;1.03;;;;;;;16.87;65.80;98830.88;4938215;28;20234;-58
2023/08/08 07:38:08;;;;;;;1.83;1.20;;;;;;;17.14;66.16;98844.38;4941038;28;20231;-57
2023/08/08 07:40:36;;;;;;;2.57;1.20;;;;;;;17.25;64.37;98844.66;4938185;28;20238;-57
2023/08/08 07:43:03;;;;;;;1.90;1.30;;;;;;;17.21;64.84;98848.69;4935892;28;20570;-55
2023/08/08 07:45:30;;;;;;;1.77;1.10;;;;;;;17.26;64.26;98841.03;4932635;28;20235;-57
2023/08/08 07:47:57;;;;;;;3.93;1.43;;;;;;;17.52;65.75;98847.53;4937999;28;20234;-58
2023/08/08 07:50:24;;;;;;;3.53;1.30;;;;;;;17.54;64.88;98844.69;4936666;28;20234;-58
2023/08/08 07:52:50;;;;;;;1.30;1.00;;;;;;;17.66;63.71;98840.53;4935676;28;20235;-57
2023/08/08 07:55:17;;;;;;;1.57;1.20;;;;;;;17.66;64.08;98845.00;4938548;28;20235;-57
2023/08/08 07:57:45;;;;;;;3.77;1.47;;;;;;;17.88;64.35;98842.31;4934738;28;22200;-57
2023/08/08 08:00:13;;;;;;;3.47;1.17;;;;;;;17.81;63.62;98842.25;4935488;29;20760;-57
2023/08/08 08:02:41;;;;;;;2.53;1.10;;;;;;;17.83;63.90;98850.81;4935349;28;20234;-55
2023/08/08 08:05:08;;;;;;;3.93;1.40;;;;;;;17.83;61.81;98845.53;4936159;28;20234;-57
2023/08/08 08:07:36;;;;;;;4.83;1.30;;;;;;;17.68;62.57;98837.72;4935947;28;20715;-57
2023/08/08 08:10:02;;;;;;;3.83;1.37;;;;;;;17.93;62.31;98839.91;4935296;28;20231;-57
2023/08/08 08:12:30;;;;;;;3.37;1.30;;;;;;;18.05;62.39;98838.38;4936274;28;20235;-58
2023/08/08 08:14:58;;;;;;;3.20;1.30;;;;;;;18.09;62.10;98844.91;4938047;28;20611;-57
2023/08/08 08:17:27;;;;;;;3.77;1.20;;;;;;;18.12;59.49;98838.44;4932058;28;20230;-54
2023/08/08 08:19:54;;;;;;;3.17;1.10;;;;;;;18.04;58.90;98836.75;4936074;29;20242;-57
2023/08/08 08:22:21;;;;;;;2.67;1.30;;;;;;;18.20;60.11;98835.63;4934908;28;20237;-57
2023/08/08 08:24:48;;;;;;;2.93;1.07;;;;;;;18.29;59.34;98836.28;4930803;28;20242;-57
2023/08/08 08:27:14;;;;;;;6.57;1.30;;;;;;;18.51;60.83;98841.44;4938733;28;20234;-57
2023/08/08 08:29:41;;;;;;;3.20;1.13;;;;;;;18.70;59.94;98831.97;4931889;28;20240;-55
2023/08/08 08:32:09;;;;;;;6.73;1.50;;;;;;;18.36;61.15;98834.47;4933891;28;20775;-57
2023/08/08 08:34:36;;;;;;;3.80;1.17;;;;;;;18.80;60.16;98837.69;4934133;28;20231;-58
2023/08/08 08:37:02;;;;;;;2.60;1.10;;;;;;;18.85;60.11;98831.81;4938423;28;20240;-57
2023/08/08 08:39:29;;;;;;;3.47;1.20;;;;;;;18.97;61.48;98834.72;4934610;28;20260;-58
2023/08/08 08:42:01;;;;;;;4.03;1.33;;;;;;;19.16;61.34;98831.28;4935483;28;20976;-56
2023/08/08 08:44:31;;;;;;;5.63;1.60;;;;;;;19.03;60.05;98823.31;4934911;29;20230;-58
2023/08/08 08:47:00;;;;;;;15.30;2.13;;;;;;;19.24;60.12;98830.25;4937773;28;20229;-58
2023/08/08 08:49:30;;;;;;;8.97;1.93;;;;;;;19.25;59.02;98837.19;4937478;28;20279;-57
2023/08/08 08:52:00;;;;;;;4.37;1.43;;;;;;;19.23;59.00;98823.34;4939135;28;20956;-57
2023/08/08 08:54:28;;;;;;;5.17;1.30;;;;;;;19.24;61.07;98830.25;4935265;28;20367;-58
2023/08/08 08:56:55;;;;;;;2.60;1.23;;;;;;;19.46;57.04;98830.91;4938161;28;20225;-57
2023/08/08 08:59:22;;;;;;;3.90;1.40;;;;;;;19.50;59.22;98831.28;4939191;28;20599;-57
2023/08/08 09:01:49;;;;;;;6.83;1.30;;;;;;;19.66;59.98;98834.56;4931256;28;20227;-57
2023/08/08 09:04:19;;;;;;;2.90;0.93;;;;;;;19.79;57.39;98831.88;4935416;28;20228;-57
2023/08/08 09:06:47;;;;;;;11.17;1.70;;;;;;;19.66;61.06;98823.97;4933799;28;20228;-56
2023/08/08 09:09:15;;;;;;;3.03;1.30;;;;;;;19.84;60.25;98825.97;4934116;28;20705;-58
2023/08/08 09:11:43;;;;;;;2.10;1.20;;;;;;;19.94;56.98;98833.53;4932192;28;20302;-56
2023/08/08 09:14:17;;;;;;;2.47;1.27;;;;;;;20.01;56.41;98835.13;4934759;28;20229;-57
2023/08/08 09:16:44;;;;;;;5.77;1.50;;;;;;;19.85;56.62;98831.06;4930092;28;20236;-57
2023/08/08 09:19:10;;;;;;;5.87;1.20;;;;;;;19.93;56.06;98823.97;4934005;28;20229;-57
2023/08/08 09:21:37;;;;;;;3.80;1.30;;;;;;;19.54;58.56;98821.13;4930861;28;20243;-57
2023/08/08 09:24:06;;;;;;;5.60;1.10;;;;;;;19.62;56.64;98820.88;4932518;28;20233;-57
2023/08/08 09:26:34;;;;;;;2.73;1.10;;;;;;;19.62;54.59;98816.44;4933414;28;20225;-57
2023/08/08 09:29:01;;;;;;;3.90;1.20;;;;;;;19.26;58.24;98817.66;4936104;28;20240;-58
2023/08/08 09:31:28;;;;;;;3.63;1.27;;;;;;;19.10;58.72;98810.91;4930121;28;20250;-57
2023/08/08 09:33:56;;;;;;;2.83;1.13;;;;;;;19.59;58.75;98819.47;4934067;28;20714;-58
2023/08/08 09:36:23;;;;;;;3.97;1.30;;;;;;;19.71;57.92;98824.16;4935381;28;20227;-58
2023/08/08 09:38:50;;;;;;;2.43;1.20;;;;;;;19.69;56.46;98820.91;4936748;28;20679;-56
2023/08/08 09:41:21;;;;;;;2.03;1.00;;;;;;;19.73;55.70;98814.19;4933585;29;20324;-57
2023/08/08 09:43:48;;;;;;;4.63;1.20;;;;;;;19.97;56.20;98815.38;4931987;28;20707;-55
2023/08/08 09:46:16;;;;;;;1.93;1.10;;;;;;;20.45;55.15;98805.44;4929409;29;20232;-58
2023/08/08 09:48:43;;;;;;;2.20;1.27;;;;;;;20.42;54.30;98805.84;4930734;28;20227;-57
2023/08/08 09:51:10;;;;;;;2.30;1.23;;;;;;;20.48;55.57;98812.97;4933228;28;20586;-58
2023/08/08 09:53:37;;;;;;;4.17;1.53;;;;;;;20.20;55.17;98806.94;4929250;28;20236;-57
2023/08/08 09:56:05;;;;;;;4.80;1.83;;;;;;;20.40;54.25;98805.25;4937436;28;20736;-56
2023/08/08 09:58:33;;;;;;;2.80;1.23;;;;;;;20.16;54.28;98811.03;4933215;28;20236;-57
2023/08/08 10:01:01;;;;;;;3.47;1.10;;;;;;;20.01;53.90;98794.59;4934278;28;20258;-58
2023/08/08 10:03:29;;;;;;;5.60;1.53;;;;;;;19.76;55.91;98795.22;4934003;28;20220;-57
2023/08/08 10:05:56;;;;;;;2.13;1.60;;;;;;;20.18;56.49;98794.94;4939537;28;20231;-58
2023/08/08 10:08:23;;;;;;;3.37;1.37;;;;;;;20.32;54.01;98791.22;4936370;28;20728;-57
2023/08/08 10:10:51;;;;;;;3.80;1.40;;;;;;;20.48;55.04;98797.88;4936503;28;20253;-58
2023/08/08 10:13:22;;;;;;;1.90;1.10;;;;;;;20.21;54.87;98803.28;4937258;28;20239;-58
2023/08/08 10:15:50;;;;;;;6.80;1.53;;;;;;;20.60;54.77;98791.91;4932644;28;20229;-57
2023/08/08 10:18:19;;;;;;;2.30;1.10;;;;;;;21.06;52.56;98795.31;4935379;28;20221;-57
2023/08/08 10:20:49;;;;;;;4.90;1.40;;;;;;;21.11;54.24;98786.72;4932927;28;20233;-57
2023/08/08 10:23:16;;;;;;;2.30;1.30;;;;;;;20.98;52.57;98790.25;4930801;29;20272;-57
2023/08/08 10:25:45;;;;;;;4.80;1.30;;;;;;;20.89;52.47;98789.72;4931159;28;20233;-58
2023/08/08 10:28:14;;;;;;;2.87;1.20;;;;;;;21.45;50.97;98790.72;4934448;28;20234;-58
2023/08/08 10:30:53;;;;;;;2.90;1.10;;;;;;;21.91;48.98;98793.16;4931128;28;20238;-57
2023/08/08 10:33:21;;;;;;;1.70;1.17;;;;;;;21.29;49.37;98801.88;4933910;28;20226;-58
2023/08/08 10:36:01;;;;;;;3.33;1.20;;;;;;;21.18;50.01;98795.44;4932772;28;20251;-58
2023/08/08 10:38:40;;;;;;;4.73;1.10;;;;;;;20.62;52.61;98797.81;4930436;29;20220;-57
2023/08/08 10:41:11;;;;;;;2.67;1.20;;;;;;;20.72;51.64;98797.31;4934821;28;20266;-57
2023/08/08 10:43:38;;;;;;;2.77;1.03;;;;;;;20.15;53.65;98793.50;4932254;28;20390;-58
2023/08/08 10:46:07;;;;;;;4.20;1.17;;;;;;;20.40;54.93;98786.69;4936562;28;20252;-58
2023/08/08 10:48:34;;;;;;;2.00;1.30;;;;;;;20.30;53.92;98779.19;4930332;28;20658;-57
2023/08/08 10:51:01;;;;;;;3.33;1.13;;;;;;;20.22;55.53;98772.28;4935092;28;20596;-57
2023/08/08 10:53:29;;;;;;;3.40;1.43;;;;;;;20.65;54.82;98778.81;4930439;28;20243;-57
2023/08/08 10:56:00;;;;;;;2.40;1.30;;;;;;;20.70;53.16;98783.47;4933558;28;20600;-57
2023/08/08 10:58:37;;;;;;;4.27;1.20;;;;;;;20.66;54.41;98785.75;4931618;28;20239;-58
2023/08/08 11:01:07;;;;;;;3.93;1.40;;;;;;;20.75;52.86;98784.47;4938129;29;20235;-58
2023/08/08 11:03:37;;;;;;;4.90;1.30;;;;;;;20.90;54.55;98778.88;4931306;29;20236;-57
2023/08/08 11:06:04;;;;;;;3.23;2.37;;;;;;;20.87;53.48;98767.91;4937124;28;20238;-58
2023/08/08 11:08:32;;;;;;;3.43;1.50;;;;;;;21.25;53.06;98769.63;4932912;28;20769;-58
2023/08/08 11:10:59;;;;;;;3.33;1.40;;;;;;;21.19;55.12;98787.25;4942228;28;20235;-58
2023/08/08 11:13:27;;;;;;;4.30;1.30;;;;;;;21.55;51.87;98779.59;4934717;28;20239;-58
2023/08/08 11:15:53;;;;;;;4.10;1.10;;;;;;;21.42;51.93;98771.75;4935566;28;20232;-57
2023/08/08 11:18:20;;;;;;;4.03;1.50;;;;;;;21.34;52.16;98771.00;4936246;28;20658;-57
2023/08/08 11:20:49;;;;;;;3.07;1.67;;;;;;;21.35;51.73;98769.16;4935101;28;20230;-57
2023/08/08 11:23:17;;;;;;;3.73;1.70;;;;;;;21.57;52.15;98777.53;4953388;28;20233;-57
2023/08/08 11:25:46;;;;;;;4.53;1.40;;;;;;;21.49;50.85;98773.31;4937896;28;20277;-55
2023/08/08 11:28:13;;;;;;;3.83;1.53;;;;;;;21.26;51.57;98778.44;4938109;28;20757;-57
2023/08/08 11:30:43;;;;;;;4.33;1.60;;;;;;;21.33;51.52;98766.72;4934920;28;20240;-57
2023/08/08 11:33:10;;;;;;;2.37;1.20;;;;;;;21.12;51.46;98775.88;4935004;29;20243;-57
2023/08/08 11:35:37;;;;;;;5.20;1.50;;;;;;;20.86;52.96;98783.00;4931465;28;20343;-59
2023/08/08 11:38:06;;;;;;;2.67;1.30;;;;;;;21.37;51.96;98786.47;4937879;28;20727;-58